Nea Ionia, Greece
Current Conditions -  °F | °C
As of 3:20 AM on Monday 26 Jan 2015 (Local Time) from LGEL Reporting Station
Few Clouds Few Clouds  
Wind Chill: 46°   Ceiling: Unl
Heat Index: 46°   Visibility: 6mi
Dew Point: 41°   Wind: 0mph
Humidity: 81%   Direction: NA
Pressure: 29.91"   Gusts: NA
Location:  38.03°N, 23.75°E
Report Text: LGEL 260020Z 00000KT 9999 FEW025 08/05 Q1013
Loading
Personal Weather Stations






























Interactive Weather Map New forecast layout! Learn more

10-Day Weather Forecast

Advertisements
Track Severe Weather on mobile